sensor_id;sensor_type;location;lat;lon;timestamp;pressure;altitude;pressure_sealevel;temperature;humidity
49949;BME280;35840;45.982;8.890;2023-05-24T00:02:19;98156.47;;;18.73;68.73
49949;BME280;35840;45.982;8.890;2023-05-24T00:04:46;98155.28;;;18.86;68.42
49949;BME280;35840;45.982;8.890;2023-05-24T00:07:14;98147.00;;;18.72;68.70
49949;BME280;35840;45.982;8.890;2023-05-24T00:09:41;98144.72;;;18.69;68.83
49949;BME280;35840;45.982;8.890;2023-05-24T00:12:08;98135.94;;;18.70;68.83
49949;BME280;35840;45.982;8.890;2023-05-24T00:14:35;98142.72;;;18.81;68.52
49949;BME280;35840;45.982;8.890;2023-05-24T00:17:02;98130.66;;;18.80;68.48
49949;BME280;35840;45.982;8.890;2023-05-24T00:19:28;98146.06;;;18.73;68.75
49949;BME280;35840;45.982;8.890;2023-05-24T00:21:55;98135.06;;;18.62;68.95
49949;BME280;35840;45.982;8.890;2023-05-24T00:24:22;98135.22;;;18.60;69.15
49949;BME280;35840;45.982;8.890;2023-05-24T00:26:49;98142.41;;;18.66;69.28
49949;BME280;35840;45.982;8.890;2023-05-24T00:29:15;98133.94;;;18.64;68.75
49949;BME280;35840;45.982;8.890;2023-05-24T00:31:42;98145.16;;;18.65;68.80
49949;BME280;35840;45.982;8.890;2023-05-24T00:34:09;98143.59;;;18.54;68.22
49949;BME280;35840;45.982;8.890;2023-05-24T00:36:36;98136.84;;;18.43;67.90
49949;BME280;35840;45.982;8.890;2023-05-24T00:39:03;98143.31;;;18.39;68.63
49949;BME280;35840;45.982;8.890;2023-05-24T00:41:30;98135.25;;;18.32;69.19
49949;BME280;35840;45.982;8.890;2023-05-24T00:43:57;98138.25;;;18.37;69.76
49949;BME280;35840;45.982;8.890;2023-05-24T00:46:33;98133.72;;;18.39;69.71
49949;BME280;35840;45.982;8.890;2023-05-24T00:49:01;98142.94;;;18.52;68.75
49949;BME280;35840;45.982;8.890;2023-05-24T00:51:29;98136.25;;;18.49;68.87
49949;BME280;35840;45.982;8.890;2023-05-24T00:53:57;98129.84;;;18.44;69.21
49949;BME280;35840;45.982;8.890;2023-05-24T00:56:25;98133.13;;;18.28;69.75
49949;BME280;35840;45.982;8.890;2023-05-24T00:58:53;98134.53;;;18.22;69.61
49949;BME280;35840;45.982;8.890;2023-05-24T01:01:22;98123.97;;;18.23;69.42
49949;BME280;35840;45.982;8.890;2023-05-24T01:03:52;98129.81;;;18.26;69.53
49949;BME280;35840;45.982;8.890;2023-05-24T01:06:20;98122.09;;;18.16;69.39
49949;BME280;35840;45.982;8.890;2023-05-24T01:09:08;98134.97;;;18.17;69.54
49949;BME280;35840;45.982;8.890;2023-05-24T01:17:20;98129.88;;;18.16;69.08
49949;BME280;35840;45.982;8.890;2023-05-24T01:19:57;98129.53;;;18.11;68.93
49949;BME280;35840;45.982;8.890;2023-05-24T01:25:44;98126.28;;;17.99;69.35
49949;BME280;35840;45.982;8.890;2023-05-24T01:28:13;98128.09;;;17.88;69.59
49949;BME280;35840;45.982;8.890;2023-05-24T01:30:42;98122.91;;;17.88;69.65
49949;BME280;35840;45.982;8.890;2023-05-24T01:33:09;98121.94;;;17.89;69.57
49949;BME280;35840;45.982;8.890;2023-05-24T01:35:38;98117.44;;;17.82;69.69
49949;BME280;35840;45.982;8.890;2023-05-24T01:38:08;98123.38;;;17.74;70.25
49949;BME280;35840;45.982;8.890;2023-05-24T01:40:39;98123.38;;;17.74;70.37
49949;BME280;35840;45.982;8.890;2023-05-24T01:43:17;98124.75;;;17.78;69.79
49949;BME280;35840;45.982;8.890;2023-05-24T01:48:53;98114.38;;;17.68;69.91
49949;BME280;35840;45.982;8.890;2023-05-24T01:51:31;98124.25;;;17.65;70.15
49949;BME280;35840;45.982;8.890;2023-05-24T01:54:00;98125.38;;;17.62;69.62
49949;BME280;35840;45.982;8.890;2023-05-24T01:56:28;98116.78;;;17.52;70.26
49949;BME280;35840;45.982;8.890;2023-05-24T01:58:55;98123.72;;;17.61;69.34
49949;BME280;35840;45.982;8.890;2023-05-24T02:01:25;98122.19;;;17.68;69.43
49949;BME280;35840;45.982;8.890;2023-05-24T02:03:52;98116.97;;;17.68;69.22
49949;BME280;35840;45.982;8.890;2023-05-24T02:06:19;98120.16;;;17.62;68.81
49949;BME280;35840;45.982;8.890;2023-05-24T02:08:46;98106.38;;;17.52;68.68
49949;BME280;35840;45.982;8.890;2023-05-24T02:11:13;98117.47;;;17.54;69.29
49949;BME280;35840;45.982;8.890;2023-05-24T02:13:40;98118.41;;;17.53;69.71
49949;BME280;35840;45.982;8.890;2023-05-24T02:16:06;98117.31;;;17.55;69.83
49949;BME280;35840;45.982;8.890;2023-05-24T02:18:33;98107.44;;;17.59;69.10
49949;BME280;35840;45.982;8.890;2023-05-24T02:21:01;98119.19;;;17.63;68.85
49949;BME280;35840;45.982;8.890;2023-05-24T02:23:28;98115.31;;;17.49;69.86
49949;BME280;35840;45.982;8.890;2023-05-24T02:25:55;98110.66;;;17.43;70.29
49949;BME280;35840;45.982;8.890;2023-05-24T02:28:22;98116.13;;;17.40;70.84
49949;BME280;35840;45.982;8.890;2023-05-24T02:30:49;98110.03;;;17.31;70.71
49949;BME280;35840;45.982;8.890;2023-05-24T02:33:16;98113.97;;;17.35;70.91
49949;BME280;35840;45.982;8.890;2023-05-24T02:35:43;98117.34;;;17.46;70.51
49949;BME280;35840;45.982;8.890;2023-05-24T02:38:10;98114.91;;;17.44;70.12
49949;BME280;35840;45.982;8.890;2023-05-24T02:40:37;98105.47;;;17.33;70.84
49949;BME280;35840;45.982;8.890;2023-05-24T02:43:04;98111.25;;;17.27;69.96
49949;BME280;35840;45.982;8.890;2023-05-24T02:45:31;98111.66;;;17.32;69.57
49949;BME280;35840;45.982;8.890;2023-05-24T02:47:58;98110.84;;;17.22;70.41
49949;BME280;35840;45.982;8.890;2023-05-24T02:50:25;98113.59;;;17.20;70.44
49949;BME280;35840;45.982;8.890;2023-05-24T02:52:52;98105.38;;;17.25;70.35
49949;BME280;35840;45.982;8.890;2023-05-24T02:55:19;98108.84;;;17.16;70.21
49949;BME280;35840;45.982;8.890;2023-05-24T02:57:46;98117.84;;;17.12;70.68
49949;BME280;35840;45.982;8.890;2023-05-24T03:00:14;98111.16;;;17.09;70.73
49949;BME280;35840;45.982;8.890;2023-05-24T03:02:43;98107.91;;;17.07;71.17
49949;BME280;35840;45.982;8.890;2023-05-24T03:05:10;98105.56;;;17.14;70.19
49949;BME280;35840;45.982;8.890;2023-05-24T03:07:37;98106.75;;;17.19;70.08
49949;BME280;35840;45.982;8.890;2023-05-24T03:10:05;98110.63;;;17.06;70.67
49949;BME280;35840;45.982;8.890;2023-05-24T03:12:32;98118.44;;;17.06;70.26
49949;BME280;35840;45.982;8.890;2023-05-24T03:14:58;98110.50;;;17.07;70.53
49949;BME280;35840;45.982;8.890;2023-05-24T03:17:25;98115.41;;;17.10;70.51
49949;BME280;35840;45.982;8.890;2023-05-24T03:19:52;98115.25;;;17.12;69.59
49949;BME280;35840;45.982;8.890;2023-05-24T03:22:19;98111.88;;;17.01;69.74
49949;BME280;35840;45.982;8.890;2023-05-24T03:24:46;98111.88;;;16.92;71.19
49949;BME280;35840;45.982;8.890;2023-05-24T03:27:15;98114.31;;;16.83;71.57
49949;BME280;35840;45.982;8.890;2023-05-24T03:29:42;98108.34;;;16.93;71.35
49949;BME280;35840;45.982;8.890;2023-05-24T03:32:10;98111.09;;;16.91;70.26
49949;BME280;35840;45.982;8.890;2023-05-24T03:34:36;98122.94;;;16.94;70.80
49949;BME280;35840;45.982;8.890;2023-05-24T03:37:03;98123.22;;;16.91;71.33
49949;BME280;35840;45.982;8.890;2023-05-24T03:39:30;98113.66;;;16.81;71.26
49949;BME280;35840;45.982;8.890;2023-05-24T03:42:12;98120.59;;;16.81;71.57
49949;BME280;35840;45.982;8.890;2023-05-24T03:44:44;98119.00;;;16.80;71.60
49949;BME280;35840;45.982;8.890;2023-05-24T03:47:11;98125.69;;;16.92;71.43
49949;BME280;35840;45.982;8.890;2023-05-24T03:49:38;98124.88;;;16.92;71.12
49949;BME280;35840;45.982;8.890;2023-05-24T03:52:04;98126.06;;;16.87;71.54
49949;BME280;35840;45.982;8.890;2023-05-24T03:54:31;98130.72;;;16.84;71.90
49949;BME280;35840;45.982;8.890;2023-05-24T03:56:58;98130.72;;;16.84;72.81
49949;BME280;35840;45.982;8.890;2023-05-24T03:59:25;98128.25;;;16.82;71.66
49949;BME280;35840;45.982;8.890;2023-05-24T04:01:53;98128.69;;;16.78;72.93
49949;BME280;35840;45.982;8.890;2023-05-24T04:04:20;98124.44;;;16.77;72.80
49949;BME280;35840;45.982;8.890;2023-05-24T04:06:47;98125.28;;;16.77;72.32
49949;BME280;35840;45.982;8.890;2023-05-24T04:09:15;98116.50;;;16.78;72.26
49949;BME280;35840;45.982;8.890;2023-05-24T04:11:41;98111.06;;;16.72;72.02
49949;BME280;35840;45.982;8.890;2023-05-24T04:14:10;98118.72;;;16.73;72.34
49949;BME280;35840;45.982;8.890;2023-05-24T04:16:37;98123.06;;;16.82;72.16
49949;BME280;35840;45.982;8.890;2023-05-24T04:19:05;98122.69;;;16.77;72.35
49949;BME280;35840;45.982;8.890;2023-05-24T04:21:32;98129.09;;;16.73;71.88
49949;BME280;35840;45.982;8.890;2023-05-24T04:24:00;98130.59;;;16.76;72.32
49949;BME280;35840;45.982;8.890;2023-05-24T04:26:27;98124.72;;;16.74;72.67
49949;BME280;35840;45.982;8.890;2023-05-24T04:28:54;98126.38;;;16.75;72.99
49949;BME280;35840;45.982;8.890;2023-05-24T04:31:22;98130.22;;;16.90;73.28
49949;BME280;35840;45.982;8.890;2023-05-24T04:33:49;98130.47;;;16.87;72.87
49949;BME280;35840;45.982;8.890;2023-05-24T04:36:15;98127.03;;;16.77;72.95
49949;BME280;35840;45.982;8.890;2023-05-24T04:38:43;98134.28;;;16.83;72.91
49949;BME280;35840;45.982;8.890;2023-05-24T04:41:11;98140.44;;;16.82;73.42
49949;BME280;35840;45.982;8.890;2023-05-24T04:43:39;98130.19;;;16.80;73.68
49949;BME280;35840;45.982;8.890;2023-05-24T04:46:06;98131.97;;;16.90;72.91
49949;BME280;35840;45.982;8.890;2023-05-24T04:48:35;98128.00;;;16.85;73.97
49949;BME280;35840;45.982;8.890;2023-05-24T04:51:02;98128.13;;;16.84;73.93
49949;BME280;35840;45.982;8.890;2023-05-24T04:53:28;98133.19;;;16.85;74.77
49949;BME280;35840;45.982;8.890;2023-05-24T04:55:55;98142.50;;;16.88;75.40
49949;BME280;35840;45.982;8.890;2023-05-24T04:58:22;98141.13;;;16.94;75.44
49949;BME280;35840;45.982;8.890;2023-05-24T05:00:49;98136.34;;;16.89;76.07
49949;BME280;35840;45.982;8.890;2023-05-24T05:03:16;98145.38;;;16.95;76.12
49949;BME280;35840;45.982;8.890;2023-05-24T05:05:43;98134.41;;;17.01;76.55
49949;BME280;35840;45.982;8.890;2023-05-24T05:08:10;98136.75;;;17.04;76.57
49949;BME280;35840;45.982;8.890;2023-05-24T05:10:37;98128.25;;;17.02;76.03
49949;BME280;35840;45.982;8.890;2023-05-24T05:13:04;98137.84;;;17.01;77.31
49949;BME280;35840;45.982;8.890;2023-05-24T05:15:31;98139.22;;;17.06;77.65
49949;BME280;35840;45.982;8.890;2023-05-24T05:17:58;98137.28;;;17.08;77.68
49949;BME280;35840;45.982;8.890;2023-05-24T05:20:26;98140.81;;;17.07;78.75
49949;BME280;35840;45.982;8.890;2023-05-24T05:22:53;98135.38;;;17.10;78.25
49949;BME280;35840;45.982;8.890;2023-05-24T05:25:20;98131.13;;;17.09;78.46
49949;BME280;35840;45.982;8.890;2023-05-24T05:27:47;98138.22;;;17.16;78.68
49949;BME280;35840;45.982;8.890;2023-05-24T05:30:14;98124.94;;;17.19;79.21
49949;BME280;35840;45.982;8.890;2023-05-24T05:32:41;98130.69;;;17.23;79.08
49949;BME280;35840;45.982;8.890;2023-05-24T05:35:08;98126.13;;;17.35;78.40
49949;BME280;35840;45.982;8.890;2023-05-24T05:37:35;98136.38;;;17.36;78.62
49949;BME280;35840;45.982;8.890;2023-05-24T05:40:02;98141.03;;;17.43;78.26
49949;BME280;35840;45.982;8.890;2023-05-24T05:42:30;98136.50;;;17.45;77.44
49949;BME280;35840;45.982;8.890;2023-05-24T05:44:57;98134.31;;;17.50;76.65
49949;BME280;35840;45.982;8.890;2023-05-24T05:47:24;98136.91;;;17.50;76.86
49949;BME280;35840;45.982;8.890;2023-05-24T05:49:51;98136.59;;;17.53;77.42
49949;BME280;35840;45.982;8.890;2023-05-24T05:52:18;98143.41;;;17.64;77.36
49949;BME280;35840;45.982;8.890;2023-05-24T05:54:45;98147.00;;;17.53;76.46
49949;BME280;35840;45.982;8.890;2023-05-24T05:57:12;98158.50;;;17.50;76.17
49949;BME280;35840;45.982;8.890;2023-05-24T05:59:38;98154.66;;;17.54;76.14
49949;BME280;35840;45.982;8.890;2023-05-24T06:02:05;98150.00;;;17.58;75.57
49949;BME280;35840;45.982;8.890;2023-05-24T06:04:33;98153.28;;;17.60;77.39
49949;BME280;35840;45.982;8.890;2023-05-24T06:07:00;98163.66;;;17.60;77.30
49949;BME280;35840;45.982;8.890;2023-05-24T06:09:27;98159.06;;;17.44;74.35
49949;BME280;35840;45.982;8.890;2023-05-24T06:11:53;98155.53;;;17.45;75.22
49949;BME280;35840;45.982;8.890;2023-05-24T06:14:20;98160.59;;;17.47;76.46
49949;BME280;35840;45.982;8.890;2023-05-24T06:16:48;98162.09;;;17.49;78.00
49949;BME280;35840;45.982;8.890;2023-05-24T06:19:15;98158.94;;;17.46;78.59
49949;BME280;35840;45.982;8.890;2023-05-24T06:21:43;98154.03;;;17.43;78.76
49949;BME280;35840;45.982;8.890;2023-05-24T06:24:14;98151.13;;;17.46;79.12
49949;BME280;35840;45.982;8.890;2023-05-24T06:26:46;98158.78;;;17.47;80.84
49949;BME280;35840;45.982;8.890;2023-05-24T06:29:13;98158.66;;;17.39;81.55
49949;BME280;35840;45.982;8.890;2023-05-24T06:31:40;98160.19;;;17.32;82.86
49949;BME280;35840;45.982;8.890;2023-05-24T06:34:09;98162.13;;;17.30;83.20
49949;BME280;35840;45.982;8.890;2023-05-24T06:36:35;98172.91;;;17.25;84.11
49949;BME280;35840;45.982;8.890;2023-05-24T06:39:07;98175.13;;;17.20;83.79
49949;BME280;35840;45.982;8.890;2023-05-24T06:41:35;98183.75;;;17.20;84.36
49949;BME280;35840;45.982;8.890;2023-05-24T06:44:02;98175.53;;;17.25;83.37
49949;BME280;35840;45.982;8.890;2023-05-24T06:46:29;98186.31;;;17.30;82.55
49949;BME280;35840;45.982;8.890;2023-05-24T06:48:57;98185.22;;;17.33;82.29
49949;BME280;35840;45.982;8.890;2023-05-24T06:51:23;98197.78;;;17.37;81.00
49949;BME280;35840;45.982;8.890;2023-05-24T06:53:51;98176.22;;;17.27;81.79
49949;BME280;35840;45.982;8.890;2023-05-24T06:56:18;98192.31;;;17.41;81.88
49949;BME280;35840;45.982;8.890;2023-05-24T06:58:45;98192.31;;;17.41;82.57
49949;BME280;35840;45.982;8.890;2023-05-24T07:01:12;98186.44;;;17.38;81.54
49949;BME280;35840;45.982;8.890;2023-05-24T07:03:40;98182.22;;;17.28;82.27
49949;BME280;35840;45.982;8.890;2023-05-24T07:06:06;98189.78;;;17.21;82.81
49949;BME280;35840;45.982;8.890;2023-05-24T07:08:35;98195.50;;;17.15;84.44
49949;BME280;35840;45.982;8.890;2023-05-24T07:11:02;98189.94;;;17.10;84.83
49949;BME280;35840;45.982;8.890;2023-05-24T07:13:29;98189.50;;;17.04;85.67
49949;BME280;35840;45.982;8.890;2023-05-24T07:15:55;98188.00;;;16.92;86.61
49949;BME280;35840;45.982;8.890;2023-05-24T07:18:22;98189.22;;;16.88;87.94
49949;BME280;35840;45.982;8.890;2023-05-24T07:20:49;98209.75;;;16.91;86.92
49949;BME280;35840;45.982;8.890;2023-05-24T07:23:16;98198.81;;;16.97;89.66
49949;BME280;35840;45.982;8.890;2023-05-24T07:25:43;98218.22;;;17.13;89.57
49949;BME280;35840;45.982;8.890;2023-05-24T07:28:09;98222.72;;;17.20;90.21
49949;BME280;35840;45.982;8.890;2023-05-24T07:30:36;98212.03;;;17.24;90.50
49949;BME280;35840;45.982;8.890;2023-05-24T07:33:05;98204.00;;;17.17;89.66
49949;BME280;35840;45.982;8.890;2023-05-24T07:35:31;98188.00;;;17.02;88.95
49949;BME280;35840;45.982;8.890;2023-05-24T07:37:58;98192.53;;;17.00;87.71
49949;BME280;35840;45.982;8.890;2023-05-24T07:40:25;98195.25;;;16.98;87.52
49949;BME280;35840;45.982;8.890;2023-05-24T07:42:52;98197.72;;;17.00;87.96
49949;BME280;35840;45.982;8.890;2023-05-24T07:45:18;98195.13;;;17.00;87.88
49949;BME280;35840;45.982;8.890;2023-05-24T07:47:46;98189.38;;;16.96;87.93
49949;BME280;35840;45.982;8.890;2023-05-24T07:50:12;98183.22;;;16.97;89.16
49949;BME280;35840;45.982;8.890;2023-05-24T07:52:39;98192.81;;;16.97;89.29
49949;BME280;35840;45.982;8.890;2023-05-24T07:55:06;98191.81;;;16.98;89.55
49949;BME280;35840;45.982;8.890;2023-05-24T07:57:33;98187.84;;;17.03;90.54
49949;BME280;35840;45.982;8.890;2023-05-24T08:00:00;98194.13;;;17.11;91.05
49949;BME280;35840;45.982;8.890;2023-05-24T08:02:37;98199.09;;;17.14;89.81
49949;BME280;35840;45.982;8.890;2023-05-24T08:05:04;98196.63;;;17.02;90.01
49949;BME280;35840;45.982;8.890;2023-05-24T08:07:31;98186.78;;;17.06;93.12
49949;BME280;35840;45.982;8.890;2023-05-24T08:09:59;98199.47;;;17.09;93.19
49949;BME280;35840;45.982;8.890;2023-05-24T08:12:27;98199.09;;;17.14;93.78
49949;BME280;35840;45.982;8.890;2023-05-24T08:14:55;98201.94;;;17.20;94.09
49949;BME280;35840;45.982;8.890;2023-05-24T08:17:22;98204.13;;;17.15;94.51
49949;BME280;35840;45.982;8.890;2023-05-24T08:19:49;98199.75;;;17.16;95.31
49949;BME280;35840;45.982;8.890;2023-05-24T08:22:16;98204.94;;;17.16;94.96
49949;BME280;35840;45.982;8.890;2023-05-24T08:24:42;98204.81;;;17.17;94.52
49949;BME280;35840;45.982;8.890;2023-05-24T08:27:09;98202.06;;;17.19;94.34
49949;BME280;35840;45.982;8.890;2023-05-24T08:29:36;98197.56;;;17.21;94.08
49949;BME280;35840;45.982;8.890;2023-05-24T08:32:03;98209.28;;;17.25;93.46
49949;BME280;35840;45.982;8.890;2023-05-24T08:34:35;98209.44;;;17.33;93.20
49949;BME280;35840;45.982;8.890;2023-05-24T08:37:03;98199.31;;;17.30;94.36
49949;BME280;35840;45.982;8.890;2023-05-24T08:39:30;98209.56;;;17.32;94.00
49949;BME280;35840;45.982;8.890;2023-05-24T08:41:57;98202.88;;;17.29;94.98
49949;BME280;35840;45.982;8.890;2023-05-24T08:44:51;98213.25;;;17.29;94.81
49949;BME280;35840;45.982;8.890;2023-05-24T08:47:21;98208.06;;;17.29;92.67
49949;BME280;35840;45.982;8.890;2023-05-24T08:49:50;98211.06;;;17.34;92.05
49949;BME280;35840;45.982;8.890;2023-05-24T08:52:17;98206.53;;;17.36;90.40
49949;BME280;35840;45.982;8.890;2023-05-24T08:54:48;98216.56;;;17.31;91.26
49949;BME280;35840;45.982;8.890;2023-05-24T08:57:15;98211.06;;;17.34;92.65
49949;BME280;35840;45.982;8.890;2023-05-24T08:59:43;98207.81;;;17.32;92.38
49949;BME280;35840;45.982;8.890;2023-05-24T09:02:13;98209.03;;;17.28;92.22
49949;BME280;35840;45.982;8.890;2023-05-24T09:04:40;98205.59;;;17.28;93.48
49949;BME280;35840;45.982;8.890;2023-05-24T09:07:11;98208.06;;;17.29;93.50
49949;BME280;35840;45.982;8.890;2023-05-24T09:09:42;98202.88;;;17.29;93.70
49949;BME280;35840;45.982;8.890;2023-05-24T09:12:14;98198.22;;;17.33;93.93
49949;BME280;35840;45.982;8.890;2023-05-24T09:15:02;98191.78;;;17.37;92.82
49949;BME280;35840;45.982;8.890;2023-05-24T09:17:36;98198.19;;;17.52;94.22
49949;BME280;35840;45.982;8.890;2023-05-24T09:20:07;98194.50;;;17.55;92.80
49949;BME280;35840;45.982;8.890;2023-05-24T09:22:41;98200.34;;;17.57;92.53
49949;BME280;35840;45.982;8.890;2023-05-24T09:25:11;98193.22;;;17.59;94.31
49949;BME280;35840;45.982;8.890;2023-05-24T09:27:38;98196.94;;;17.57;93.30
49949;BME280;35840;45.982;8.890;2023-05-24T09:30:09;98199.53;;;17.57;94.36
49949;BME280;35840;45.982;8.890;2023-05-24T09:32:38;98198.50;;;17.40;93.03
49949;BME280;35840;45.982;8.890;2023-05-24T09:35:09;98201.09;;;17.40;94.14
49949;BME280;35840;45.982;8.890;2023-05-24T09:37:36;98196.69;;;17.40;96.75
49949;BME280;35840;45.982;8.890;2023-05-24T09:40:06;98206.53;;;17.36;97.59
49949;BME280;35840;45.982;8.890;2023-05-24T09:42:42;98210.41;;;17.32;95.68
49949;BME280;35840;45.982;8.890;2023-05-24T09:45:09;98192.22;;;17.32;95.61
49949;BME280;35840;45.982;8.890;2023-05-24T09:47:39;98202.47;;;17.34;95.55
49949;BME280;35840;45.982;8.890;2023-05-24T09:50:11;98200.84;;;17.23;96.77
49949;BME280;35840;45.982;8.890;2023-05-24T09:52:40;98196.88;;;17.19;98.00
49949;BME280;35840;45.982;8.890;2023-05-24T09:55:14;98193.47;;;17.18;98.85
49949;BME280;35840;45.982;8.890;2023-05-24T09:58:08;98194.97;;;17.21;98.91
49949;BME280;35840;45.982;8.890;2023-05-24T10:00:38;98194.00;;;17.22;96.70
49949;BME280;35840;45.982;8.890;2023-05-24T10:03:11;98191.38;;;17.22;96.70
49949;BME280;35840;45.982;8.890;2023-05-24T10:05:58;98183.88;;;17.29;97.20
49949;BME280;35840;45.982;8.890;2023-05-24T10:08:26;98185.22;;;17.33;96.99
49949;BME280;35840;45.982;8.890;2023-05-24T10:10:54;98183.84;;;17.38;95.73
49949;BME280;35840;45.982;8.890;2023-05-24T10:13:21;98184.50;;;17.41;95.63
49949;BME280;35840;45.982;8.890;2023-05-24T10:15:48;98174.81;;;17.43;93.15
49949;BME280;35840;45.982;8.890;2023-05-24T10:18:15;98184.94;;;17.36;93.00
49949;BME280;35840;45.982;8.890;2023-05-24T10:20:42;98185.22;;;17.33;93.03
49949;BME280;35840;45.982;8.890;2023-05-24T10:23:14;98175.81;;;17.22;95.59
49949;BME280;35840;45.982;8.890;2023-05-24T10:25:49;98163.66;;;17.13;97.65
49949;BME280;35840;45.982;8.890;2023-05-24T10:28:18;98138.94;;;16.99;95.99
49949;BME280;35840;45.982;8.890;2023-05-24T10:33:24;98160.13;;;17.14;97.12
49949;BME280;35840;45.982;8.890;2023-05-24T10:35:52;98168.88;;;17.13;99.55
49949;BME280;35840;45.982;8.890;2023-05-24T10:38:21;98175.13;;;17.20;99.08
49949;BME280;35840;45.982;8.890;2023-05-24T10:40:49;98172.53;;;17.20;96.51
49949;BME280;35840;45.982;8.890;2023-05-24T10:43:16;98177.44;;;17.23;96.82
49949;BME280;35840;45.982;8.890;2023-05-24T10:45:48;98175.69;;;17.14;92.45
49949;BME280;35840;45.982;8.890;2023-05-24T10:50:43;98182.06;;;17.29;93.11
49949;BME280;35840;45.982;8.890;2023-05-24T10:53:17;98186.72;;;17.35;92.92
49949;BME280;35840;45.982;8.890;2023-05-24T10:55:57;98190.75;;;17.58;95.33
49949;BME280;35840;45.982;8.890;2023-05-24T10:58:44;98194.56;;;17.63;94.29
49949;BME280;35840;45.982;8.890;2023-05-24T11:01:31;98186.38;;;17.68;95.09
49949;BME280;35840;45.982;8.890;2023-05-24T11:04:15;98187.47;;;17.65;93.52
49949;BME280;35840;45.982;8.890;2023-05-24T11:06:47;98170.50;;;17.61;94.89
49949;BME280;35840;45.982;8.890;2023-05-24T11:09:17;98190.44;;;17.70;94.02
49949;BME280;35840;45.982;8.890;2023-05-24T11:11:49;98187.56;;;17.83;96.09
49949;BME280;35840;45.982;8.890;2023-05-24T11:14:24;98183.00;;;17.85;95.08
49949;BME280;35840;45.982;8.890;2023-05-24T11:16:53;98178.47;;;17.97;96.58
49949;BME280;35840;45.982;8.890;2023-05-24T11:19:23;98184.06;;;18.02;95.43
49949;BME280;35840;45.982;8.890;2023-05-24T11:21:51;98181.59;;;18.01;91.61
49949;BME280;35840;45.982;8.890;2023-05-24T11:24:24;98171.06;;;18.02;89.73
49949;BME280;35840;45.982;8.890;2023-05-24T11:26:52;98168.91;;;18.16;95.21
49949;BME280;35840;45.982;8.890;2023-05-24T11:29:19;98164.25;;;18.19;94.18
49949;BME280;35840;45.982;8.890;2023-05-24T11:31:53;98158.59;;;18.24;94.28
49949;BME280;35840;45.982;8.890;2023-05-24T11:34:20;98152.97;;;18.29;92.27
49949;BME280;35840;45.982;8.890;2023-05-24T11:36:48;98157.97;;;18.40;89.96
49949;BME280;35840;45.982;8.890;2023-05-24T11:39:15;98144.13;;;18.39;91.44
49949;BME280;35840;45.982;8.890;2023-05-24T11:41:42;98150.38;;;18.47;92.09
49949;BME280;35840;45.982;8.890;2023-05-24T11:44:10;98145.00;;;18.48;90.83
49949;BME280;35840;45.982;8.890;2023-05-24T11:46:38;98148.16;;;18.52;89.15
49949;BME280;35840;45.982;8.890;2023-05-24T11:49:05;98127.41;;;18.42;85.34
49949;BME280;35840;45.982;8.890;2023-05-24T11:51:33;98142.34;;;18.58;83.98
49949;BME280;35840;45.982;8.890;2023-05-24T11:54:01;98128.13;;;18.52;83.92
49949;BME280;35840;45.982;8.890;2023-05-24T11:56:29;98136.16;;;18.59;85.24
49949;BME280;35840;45.982;8.890;2023-05-24T11:59:14;98125.44;;;18.62;87.28
49949;BME280;35840;45.982;8.890;2023-05-24T12:01:42;98131.09;;;18.75;85.04
49949;BME280;35840;45.982;8.890;2023-05-24T12:04:09;98123.00;;;18.79;84.94
49949;BME280;35840;45.982;8.890;2023-05-24T12:06:39;98129.91;;;18.88;83.51
49949;BME280;35840;45.982;8.890;2023-05-24T12:09:07;98133.75;;;19.02;87.41
49949;BME280;35840;45.982;8.890;2023-05-24T12:11:46;98129.06;;;19.05;84.86
49949;BME280;35840;45.982;8.890;2023-05-24T12:14:14;98121.34;;;19.22;85.96
49949;BME280;35840;45.982;8.890;2023-05-24T12:16:42;98117.16;;;19.29;88.80
49949;BME280;35840;45.982;8.890;2023-05-24T12:19:19;98120.13;;;19.34;85.58
49949;BME280;35840;45.982;8.890;2023-05-24T12:21:49;98124.31;;;19.27;79.50
49949;BME280;35840;45.982;8.890;2023-05-24T12:24:19;98115.31;;;19.21;79.99
49949;BME280;35840;45.982;8.890;2023-05-24T12:26:46;98114.66;;;19.19;80.42
49949;BME280;35840;45.982;8.890;2023-05-24T12:29:14;98113.63;;;19.12;79.76
49949;BME280;35840;45.982;8.890;2023-05-24T12:31:46;98107.59;;;19.12;80.64
49949;BME280;35840;45.982;8.890;2023-05-24T12:34:15;98098.88;;;19.21;83.32
49949;BME280;35840;45.982;8.890;2023-05-24T12:36:42;98101.78;;;19.18;81.69
49949;BME280;35840;45.982;8.890;2023-05-24T12:39:26;98095.97;;;19.24;84.54
49949;BME280;35840;45.982;8.890;2023-05-24T12:41:58;98099.91;;;19.28;82.79
49949;BME280;35840;45.982;8.890;2023-05-24T12:44:33;98093.09;;;19.35;81.12
49949;BME280;35840;45.982;8.890;2023-05-24T12:47:02;98090.31;;;19.37;80.04
49949;BME280;35840;45.982;8.890;2023-05-24T12:49:31;98086.88;;;19.36;80.65
49949;BME280;35840;45.982;8.890;2023-05-24T12:51:59;98082.03;;;19.41;77.81
49949;BME280;35840;45.982;8.890;2023-05-24T12:54:27;98082.72;;;19.43;75.86
49949;BME280;35840;45.982;8.890;2023-05-24T12:56:55;98083.72;;;19.51;72.55
49949;BME280;35840;45.982;8.890;2023-05-24T12:59:24;98085.81;;;19.47;75.76
49949;BME280;35840;45.982;8.890;2023-05-24T13:01:51;98084.69;;;19.50;79.31
49949;BME280;35840;45.982;8.890;2023-05-24T13:04:20;98074.06;;;19.43;80.03
49949;BME280;35840;45.982;8.890;2023-05-24T13:06:48;98075.69;;;19.44;78.81
49949;BME280;35840;45.982;8.890;2023-05-24T13:09:15;98074.88;;;19.43;76.97
49949;BME280;35840;45.982;8.890;2023-05-24T13:11:44;98067.66;;;19.37;75.38
49949;BME280;35840;45.982;8.890;2023-05-24T13:14:12;98045.16;;;19.28;78.50
49949;BME280;35840;45.982;8.890;2023-05-24T13:16:49;98050.31;;;19.20;79.89
49949;BME280;35840;45.982;8.890;2023-05-24T13:19:50;98009.81;;;18.99;80.89
49949;BME280;35840;45.982;8.890;2023-05-24T13:22:20;98014.44;;;19.05;81.87
49949;BME280;35840;45.982;8.890;2023-05-24T13:24:55;98030.28;;;19.20;83.70
49949;BME280;35840;45.982;8.890;2023-05-24T13:27:42;98034.22;;;19.24;84.45